Time;durP1;ratioP1;P1;durP2;ratioP2;P2;SDS_P1;SDS_P2;PMS_P1;PMS_P2;Temp;Humidity;BMP_temperature;BMP_pressure;BME280_temperature;BME280_humidity;BME280_pressure;Samples;Min_cycle;Max_cycle;Signal;HPM_P1;HPM_P2
2022/12/04 00:00:39;;;;;;;;;;;20.90;68.60;;;;;;1523310;77;1095;-72
2022/12/04 00:02:41;;;;;;;;;;;21.00;68.50;;;;;;1529786;77;1934;-71
2022/12/04 00:04:43;;;;;;;;;;;21.00;68.40;;;;;;1527020;77;572;-70
2022/12/04 00:06:44;;;;;;;;;;;21.00;68.40;;;;;;1524718;77;580;-71
2022/12/04 00:08:46;;;;;;;;;;;21.00;68.40;;;;;;1528836;77;815;-71
2022/12/04 00:10:48;;;;;;;;;;;21.00;68.30;;;;;;1525286;77;1126;-70
2022/12/04 00:12:50;;;;;;;;;;;21.00;68.30;;;;;;1525513;77;817;-68
2022/12/04 00:14:52;;;;;;;;;;;21.00;68.30;;;;;;1525705;77;752;-69
2022/12/04 00:16:54;;;;;;;;;;;21.00;68.30;;;;;;1528172;77;623;-71
2022/12/04 00:18:56;;;;;;;;;;;21.00;68.30;;;;;;1524707;77;752;-71
2022/12/04 00:20:58;;;;;;;;;;;21.00;68.30;;;;;;1521059;77;1119;-71
2022/12/04 00:22:59;;;;;;;;;;;21.00;68.40;;;;;;1523011;77;1963;-71
2022/12/04 00:25:01;;;;;;;;;;;21.00;68.30;;;;;;1531632;77;1332;-69
2022/12/04 00:27:03;;;;;;;;;;;21.00;68.40;;;;;;1524377;77;712;-69
2022/12/04 00:29:05;;;;;;;;;;;21.00;68.50;;;;;;1525229;77;788;-69
2022/12/04 00:31:08;;;;;;;;;;;21.00;68.50;;;;;;1525547;77;1160;-69
2022/12/04 00:33:10;;;;;;;;;;;21.00;68.40;;;;;;1524891;77;771;-69
2022/12/04 00:35:12;;;;;;;;;;;21.00;68.40;;;;;;1525226;77;710;-69
2022/12/04 00:37:14;;;;;;;;;;;21.00;68.40;;;;;;1524376;77;780;-69
2022/12/04 00:39:16;;;;;;;;;;;20.90;68.40;;;;;;1533694;77;752;-69
2022/12/04 00:41:18;;;;;;;;;;;21.00;68.40;;;;;;1527899;77;1423;-71
2022/12/04 00:43:20;;;;;;;;;;;21.00;68.40;;;;;;1526902;77;1928;-70
2022/12/04 00:45:22;;;;;;;;;;;21.00;68.40;;;;;;1528014;77;722;-69
2022/12/04 00:47:24;;;;;;;;;;;21.00;68.50;;;;;;1525202;77;788;-70
2022/12/04 00:49:26;;;;;;;;;;;21.00;68.40;;;;;;1527815;77;1138;-71
2022/12/04 00:51:28;;;;;;;;;;;21.00;68.30;;;;;;1525365;77;717;-72
2022/12/04 00:53:29;;;;;;;;;;;21.00;68.40;;;;;;1525952;77;781;-71
2022/12/04 00:55:31;;;;;;;;;;;21.00;68.30;;;;;;1524656;77;725;-70
2022/12/04 00:57:33;;;;;;;;;;;21.10;68.40;;;;;;1521985;77;777;-72
2022/12/04 00:59:36;;;;;;;;;;;21.00;68.40;;;;;;1525113;77;1150;-71
2022/12/04 01:01:38;;;;;;;;;;;21.00;68.40;;;;;;1522205;77;777;-70
2022/12/04 01:03:40;;;;;;;;;;;21.00;68.30;;;;;;1524632;77;1934;-71
2022/12/04 01:05:42;;;;;;;;;;;21.00;68.30;;;;;;1523205;77;793;-73
2022/12/04 01:07:44;;;;;;;;;;;21.00;68.40;;;;;;1525352;77;646;-70
2022/12/04 01:09:46;;;;;;;;;;;21.00;68.50;;;;;;1525841;77;1191;-68
2022/12/04 01:11:48;;;;;;;;;;;21.00;68.80;;;;;;1522330;77;592;-70
2022/12/04 01:13:50;;;;;;;;;;;21.00;68.90;;;;;;1524978;77;629;-69
2022/12/04 01:15:52;;;;;;;;;;;21.00;68.80;;;;;;1525698;77;723;-70
2022/12/04 01:17:54;;;;;;;;;;;20.90;69.00;;;;;;1525060;77;627;-71
2022/12/04 01:19:56;;;;;;;;;;;21.00;69.00;;;;;;1525593;77;1076;-70
2022/12/04 01:21:57;;;;;;;;;;;21.00;69.00;;;;;;1518372;77;1459;-70
2022/12/04 01:23:59;;;;;;;;;;;21.00;68.90;;;;;;1522312;77;1918;-69
2022/12/04 01:27:19;;;;;;;;;;;21.00;68.80;;;;;;1599241;72;589;-65
2022/12/04 01:29:21;;;;;;;;;;;21.00;68.60;;;;;;1575321;74;1158;-64
2022/12/04 01:31:23;;;;;;;;;;;21.00;68.60;;;;;;1575577;74;733;-65
2022/12/04 01:33:25;;;;;;;;;;;21.00;68.50;;;;;;1580555;74;768;-64
2022/12/04 01:35:26;;;;;;;;;;;21.00;68.50;;;;;;1578317;74;682;-65
2022/12/04 01:37:30;;;;;;;;;;;21.10;68.40;;;;;;1577020;74;805;-63
2022/12/04 01:39:32;;;;;;;;;;;21.10;68.30;;;;;;1579233;74;1073;-64
2022/12/04 01:41:34;;;;;;;;;;;21.10;68.40;;;;;;1581084;74;741;-65
2022/12/04 01:43:36;;;;;;;;;;;21.00;68.50;;;;;;1575430;74;738;-64
2022/12/04 01:45:42;;;;;;;;;;;21.00;68.50;;;;;;1572883;74;1941;-64
2022/12/04 01:47:44;;;;;;;;;;;21.00;68.60;;;;;;1570926;74;1144;-63
2022/12/04 01:49:46;;;;;;;;;;;21.00;68.70;;;;;;1576393;74;729;-63
2022/12/04 01:51:49;;;;;;;;;;;21.00;68.60;;;;;;1584603;74;667;-63
2022/12/04 01:53:53;;;;;;;;;;;21.10;68.70;;;;;;1579212;74;827;-64
2022/12/04 01:55:55;;;;;;;;;;;21.00;68.60;;;;;;1584877;74;741;-64
2022/12/04 01:57:56;;;;;;;;;;;21.00;68.40;;;;;;1581982;74;1159;-64
2022/12/04 01:59:59;;;;;;;;;;;21.10;68.40;;;;;;1573088;74;231392;-78
2022/12/04 02:02:05;;;;;;;;;;;21.00;68.30;;;;;;1518034;76;757;-76
2022/12/04 02:04:06;;;;;;;;;;;21.00;68.30;;;;;;1515504;77;620;-77
2022/12/04 02:06:08;;;;;;;;;;;21.00;68.40;;;;;;1513246;78;1931;-76
2022/12/04 02:08:10;;;;;;;;;;;21.10;68.40;;;;;;1516215;76;746;-72
2022/12/04 02:10:12;;;;;;;;;;;21.10;68.30;;;;;;1515174;77;1238;-75
2022/12/04 02:12:19;;;;;;;;;;;21.20;68.20;;;;;;1505922;77;793;-77
2022/12/04 02:14:22;;;;;;;;;;;21.10;68.10;;;;;;1502572;78;1100;-76
2022/12/04 02:16:25;;;;;;;;;;;21.20;68.00;;;;;;1494322;78;800;-77
2022/12/04 02:18:31;;;;;;;;;;;21.30;67.90;;;;;;1495504;77;1588;-77
2022/12/04 02:20:40;;;;;;;;;;;21.20;67.70;;;;;;1492812;78;1135;-76
2022/12/04 02:22:53;;;;;;;;;;;21.30;67.70;;;;;;1499383;78;1518;-75
2022/12/04 02:24:59;;;;;;;;;;;21.30;67.80;;;;;;1504463;77;880;-76
2022/12/04 02:27:02;;;;;;;;;;;21.20;67.60;;;;;;1502481;78;1935;-75
2022/12/04 02:29:07;;;;;;;;;;;21.20;67.70;;;;;;1503314;78;753;-76
2022/12/04 02:31:11;;;;;;;;;;;21.20;67.70;;;;;;1493402;77;1164;-75
2022/12/04 02:33:17;;;;;;;;;;;21.20;67.60;;;;;;1494285;78;747;-75
2022/12/04 02:35:29;;;;;;;;;;;21.20;67.50;;;;;;1488483;78;1762;-75
2022/12/04 02:37:32;;;;;;;;;;;21.20;67.50;;;;;;1495091;79;881;-73
2022/12/04 02:39:36;;;;;;;;;;;21.30;67.50;;;;;;1507711;77;724;-74
2022/12/04 02:41:39;;;;;;;;;;;21.20;67.40;;;;;;1502193;78;1115;-74
2022/12/04 02:43:43;;;;;;;;;;;21.30;67.30;;;;;;1503073;77;759;-73
2022/12/04 02:45:45;;;;;;;;;;;21.30;67.30;;;;;;1500046;79;1974;-72
2022/12/04 02:47:47;;;;;;;;;;;21.30;67.20;;;;;;1502677;78;752;-73
2022/12/04 02:49:51;;;;;;;;;;;21.30;67.20;;;;;;1498095;77;1134;-72
2022/12/04 02:51:53;;;;;;;;;;;21.30;67.10;;;;;;1495147;78;958;-72
2022/12/04 02:53:56;;;;;;;;;;;21.30;67.20;;;;;;1501015;77;692;-72
2022/12/04 02:55:59;;;;;;;;;;;21.30;67.10;;;;;;1499118;78;767;-73
2022/12/04 02:58:03;;;;;;;;;;;21.30;67.00;;;;;;1504545;77;727;-73
2022/12/04 03:00:07;;;;;;;;;;;21.30;67.00;;;;;;1499573;78;1987;-74
2022/12/04 03:02:10;;;;;;;;;;;21.30;67.10;;;;;;1500461;78;1639;-74
2022/12/04 03:04:14;;;;;;;;;;;21.30;67.10;;;;;;1502400;78;1121;-76
2022/12/04 03:06:16;;;;;;;;;;;21.30;67.10;;;;;;1501986;78;1926;-73
2022/12/04 03:08:19;;;;;;;;;;;21.30;67.00;;;;;;1505634;77;720;-73
2022/12/04 03:10:22;;;;;;;;;;;21.30;66.90;;;;;;1502219;78;1152;-76
2022/12/04 03:12:32;;;;;;;;;;;21.20;66.80;;;;;;1496225;78;1067;-71
2022/12/04 03:14:34;;;;;;;;;;;21.30;67.00;;;;;;1482600;78;1711;-72
2022/12/04 03:16:38;;;;;;;;;;;21.30;67.10;;;;;;1499798;77;779;-69
2022/12/04 03:18:41;;;;;;;;;;;21.30;67.10;;;;;;1499385;78;727;-72
2022/12/04 03:20:43;;;;;;;;;;;21.40;67.00;;;;;;1493477;78;1157;-71
2022/12/04 03:22:45;;;;;;;;;;;21.40;67.00;;;;;;1501552;77;781;-71
2022/12/04 03:24:52;;;;;;;;;;;21.40;66.90;;;;;;1498461;78;811;-71
2022/12/04 03:26:55;;;;;;;;;;;21.40;67.00;;;;;;1502892;78;1909;-69
2022/12/04 03:28:59;;;;;;;;;;;21.40;66.90;;;;;;1491628;78;1096;-72
2022/12/04 03:31:03;;;;;;;;;;;21.40;67.00;;;;;;1501523;78;1639;-71
2022/12/04 03:33:09;;;;;;;;;;;21.40;66.90;;;;;;1504236;78;732;-73
2022/12/04 03:35:13;;;;;;;;;;;21.40;67.00;;;;;;1499869;78;934;-71
2022/12/04 03:37:15;;;;;;;;;;;21.40;67.00;;;;;;1493940;77;1863;-72
2022/12/04 03:39:18;;;;;;;;;;;21.50;67.10;;;;;;1505018;78;870;-73
2022/12/04 03:41:34;;;;;;;;;;;21.50;67.10;;;;;;1500214;78;1182;-72
2022/12/04 03:43:43;;;;;;;;;;;21.50;67.00;;;;;;1500754;78;1511;-74
2022/12/04 03:45:52;;;;;;;;;;;21.50;67.10;;;;;;1495136;78;1161;-74
2022/12/04 03:48:02;;;;;;;;;;;21.50;67.10;;;;;;1485783;78;1951;-73
2022/12/04 03:50:14;;;;;;;;;;;21.50;67.10;;;;;;1506016;76;1192;-74
2022/12/04 03:52:29;;;;;;;;;;;21.50;67.30;;;;;;1495145;78;737;-75
2022/12/04 03:54:33;;;;;;;;;;;21.50;67.40;;;;;;1496344;77;733;-75
2022/12/04 03:56:36;;;;;;;;;;;21.50;67.30;;;;;;1478585;77;1073;-71
2022/12/04 03:58:40;;;;;;;;;;;21.50;67.40;;;;;;1500657;77;630;-75
2022/12/04 04:00:42;;;;;;;;;;;21.50;67.30;;;;;;1499869;78;1153;-74
2022/12/04 04:02:48;;;;;;;;;;;21.50;67.40;;;;;;1503892;79;780;-75
2022/12/04 04:04:51;;;;;;;;;;;21.50;67.40;;;;;;1506504;78;878;-74
2022/12/04 04:06:53;;;;;;;;;;;21.50;67.50;;;;;;1498620;77;1934;-75
2022/12/04 04:08:56;;;;;;;;;;;21.50;67.40;;;;;;1496826;78;752;-75
2022/12/04 04:11:05;;;;;;;;;;;21.40;67.20;;;;;;1498537;78;1520;-76
2022/12/04 04:24:54;;;;;;;;;;;21.40;67.80;;;;;;1502004;78;1626;-76
2022/12/04 04:26:56;;;;;;;;;;;21.30;67.80;;;;;;1495082;78;1943;-76
2022/12/04 04:28:58;;;;;;;;;;;21.40;67.80;;;;;;1495925;78;736;-76
2022/12/04 04:31:13;;;;;;;;;;;21.40;67.90;;;;;;1495590;78;1077;-76
2022/12/04 04:33:15;;;;;;;;;;;21.40;67.80;;;;;;1452387;79;1102;-76
2022/12/04 04:35:19;;;;;;;;;;;21.40;67.80;;;;;;1511085;77;708;-77
2022/12/04 04:37:31;;;;;;;;;;;21.40;67.80;;;;;;1504136;78;770;-75
2022/12/04 04:39:37;;;;;;;;;;;21.40;67.80;;;;;;1506120;78;1982;-73
2022/12/04 04:41:41;;;;;;;;;;;21.40;67.90;;;;;;1505210;78;1143;-73
2022/12/04 04:44:01;;;;;;;;;;;21.50;67.90;;;;;;1501372;77;798;-75
2022/12/04 04:46:04;;;;;;;;;;;21.50;68.00;;;;;;1497763;78;800;-74
2022/12/04 04:48:10;;;;;;;;;;;21.50;68.00;;;;;;1501847;78;1930;-75
2022/12/04 04:50:12;;;;;;;;;;;21.40;67.90;;;;;;1493237;77;1158;-72
2022/12/04 04:52:14;;;;;;;;;;;21.50;68.20;;;;;;1503232;78;714;-74
2022/12/04 04:54:16;;;;;;;;;;;21.40;68.00;;;;;;1502476;77;744;-75
2022/12/04 04:56:18;;;;;;;;;;;21.50;68.30;;;;;;1507597;78;770;-74
2022/12/04 04:58:20;;;;;;;;;;;21.40;68.10;;;;;;1505495;77;855;-73
2022/12/04 05:00:22;;;;;;;;;;;21.50;68.10;;;;;;1498759;78;1134;-73
2022/12/04 05:02:25;;;;;;;;;;;21.50;68.10;;;;;;1486037;77;818;-74
2022/12/04 05:04:27;;;;;;;;;;;21.50;68.00;;;;;;1504602;77;834;-73
2022/12/04 05:06:29;;;;;;;;;;;21.50;68.00;;;;;;1492118;78;1942;-75
2022/12/04 05:08:31;;;;;;;;;;;21.50;67.90;;;;;;1499040;78;716;-74
2022/12/04 05:10:33;;;;;;;;;;;21.60;67.90;;;;;;1504188;77;1135;-73
2022/12/04 05:12:35;;;;;;;;;;;21.50;67.80;;;;;;1500894;78;704;-71
2022/12/04 05:14:36;;;;;;;;;;;21.60;67.70;;;;;;1501274;78;729;-74
2022/12/04 05:16:39;;;;;;;;;;;21.60;67.60;;;;;;1499041;78;793;-73
2022/12/04 05:19:52;;;;;;;;;;;21.60;67.40;;;;;;1503728;77;721;-74
2022/12/04 05:20:45;;;;;;;;;;;21.60;67.40;;;;;;1494727;78;1189;-74
2022/12/04 05:22:46;;;;;;;;;;;21.60;67.40;;;;;;1503123;77;702;-73
2022/12/04 05:24:48;;;;;;;;;;;21.60;67.30;;;;;;1503122;78;721;-76
2022/12/04 05:26:50;;;;;;;;;;;21.60;67.30;;;;;;1514572;77;1927;-71
2022/12/04 05:28:52;;;;;;;;;;;21.70;67.30;;;;;;1499305;77;760;-74
2022/12/04 05:30:55;;;;;;;;;;;21.70;67.10;;;;;;1491346;78;1150;-76
2022/12/04 05:32:57;;;;;;;;;;;21.70;67.00;;;;;;1518347;77;713;-75
2022/12/04 05:34:59;;;;;;;;;;;21.70;67.20;;;;;;1495174;78;725;-74
2022/12/04 05:37:01;;;;;;;;;;;21.70;67.30;;;;;;1495800;77;712;-74
2022/12/04 05:39:02;;;;;;;;;;;21.80;67.10;;;;;;1502345;78;815;-76
2022/12/04 05:41:05;;;;;;;;;;;21.80;67.00;;;;;;1501706;78;1170;-74
2022/12/04 05:43:07;;;;;;;;;;;21.80;66.90;;;;;;1499663;77;749;-76
2022/12/04 05:45:09;;;;;;;;;;;21.80;66.80;;;;;;1501959;78;806;-73
2022/12/04 05:47:10;;;;;;;;;;;21.80;66.80;;;;;;1501154;78;1933;-74
2022/12/04 05:49:12;;;;;;;;;;;21.80;66.90;;;;;;1507474;77;795;-71
2022/12/04 05:51:14;;;;;;;;;;;21.80;66.80;;;;;;1501349;78;1135;-73
2022/12/04 05:53:16;;;;;;;;;;;21.80;66.70;;;;;;1500355;77;958;-74
2022/12/04 05:55:18;;;;;;;;;;;21.80;66.60;;;;;;1500489;78;611;-74
2022/12/04 05:57:20;;;;;;;;;;;21.80;66.60;;;;;;1503972;77;727;-74
2022/12/04 05:59:22;;;;;;;;;;;21.80;66.60;;;;;;1499239;78;729;-74
2022/12/04 06:01:24;;;;;;;;;;;21.80;66.60;;;;;;1492221;78;1228;-74
2022/12/04 06:03:25;;;;;;;;;;;21.90;66.60;;;;;;1514035;77;1532;-73
2022/12/04 06:05:27;;;;;;;;;;;21.90;66.70;;;;;;1492040;77;779;-73
2022/12/04 06:07:29;;;;;;;;;;;21.80;66.60;;;;;;1502487;78;1945;-75
2022/12/04 06:09:31;;;;;;;;;;;21.90;66.70;;;;;;1502282;78;720;-76
2022/12/04 06:11:34;;;;;;;;;;;21.90;66.60;;;;;;1497038;77;1115;-77
2022/12/04 06:13:36;;;;;;;;;;;21.70;66.40;;;;;;1491973;78;718;-76
2022/12/04 06:15:38;;;;;;;;;;;21.70;66.60;;;;;;1494289;78;666;-75
2022/12/04 06:17:40;;;;;;;;;;;21.70;66.80;;;;;;1518113;77;739;-76
2022/12/04 06:19:42;;;;;;;;;;;21.80;66.80;;;;;;1497830;78;667;-76
2022/12/04 06:21:46;;;;;;;;;;;21.70;67.00;;;;;;1505872;78;1175;-76
2022/12/04 06:23:47;;;;;;;;;;;21.70;66.90;;;;;;1504800;77;1090;-76
2022/12/04 06:25:49;;;;;;;;;;;21.70;66.90;;;;;;1504341;78;746;-74
2022/12/04 06:27:51;;;;;;;;;;;21.80;67.00;;;;;;1511888;78;1942;-75
2022/12/04 06:29:53;;;;;;;;;;;21.50;66.80;;;;;;1491303;78;1122;-73
2022/12/04 06:31:55;;;;;;;;;;;21.80;66.80;;;;;;1498850;77;777;-76
2022/12/04 06:33:57;;;;;;;;;;;21.70;66.80;;;;;;1495609;78;705;-77
2022/12/04 06:36:04;;;;;;;;;;;21.70;66.80;;;;;;1502742;79;722;-76
2022/12/04 06:38:06;;;;;;;;;;;21.80;66.80;;;;;;1497513;77;725;-75
2022/12/04 06:40:09;;;;;;;;;;;21.70;66.80;;;;;;1501579;77;1108;-76
2022/12/04 06:42:10;;;;;;;;;;;21.70;66.80;;;;;;1498154;78;725;-77
2022/12/04 06:44:13;;;;;;;;;;;21.70;66.90;;;;;;1495822;78;708;-77
2022/12/04 06:46:17;;;;;;;;;;;21.80;66.90;;;;;;1499519;77;735;-76
2022/12/04 06:48:19;;;;;;;;;;;21.80;66.90;;;;;;1502816;78;1922;-74
2022/12/04 06:50:21;;;;;;;;;;;21.70;67.00;;;;;;1489388;78;1135;-76
2022/12/04 06:52:23;;;;;;;;;;;21.70;66.90;;;;;;1497607;78;756;-73
2022/12/04 06:54:25;;;;;;;;;;;21.80;67.00;;;;;;1503054;78;741;-76
2022/12/04 06:56:28;;;;;;;;;;;21.70;67.00;;;;;;1497299;78;781;-76
2022/12/04 06:58:30;;;;;;;;;;;21.70;67.00;;;;;;1498371;78;1332;-77
2022/12/04 07:00:32;;;;;;;;;;;21.70;66.90;;;;;;1506806;77;1149;-77
2022/12/04 07:02:34;;;;;;;;;;;21.80;66.80;;;;;;1507262;77;718;-77
2022/12/04 07:04:35;;;;;;;;;;;21.80;66.70;;;;;;1497499;77;774;-76
2022/12/04 07:06:38;;;;;;;;;;;21.80;66.70;;;;;;1508629;78;606;-79
2022/12/04 07:08:40;;;;;;;;;;;21.80;66.70;;;;;;1507411;78;1935;-77
2022/12/04 07:10:42;;;;;;;;;;;21.80;66.60;;;;;;1510059;77;1142;-75
2022/12/04 07:12:44;;;;;;;;;;;21.80;66.70;;;;;;1494803;77;755;-73
2022/12/04 07:14:45;;;;;;;;;;;21.80;66.90;;;;;;1497183;78;753;-73
2022/12/04 07:16:47;;;;;;;;;;;21.80;66.50;;;;;;1510407;77;731;-73
2022/12/04 07:18:49;;;;;;;;;;;21.90;66.30;;;;;;1504399;78;729;-72
2022/12/04 07:20:51;;;;;;;;;;;21.90;66.00;;;;;;1500930;77;1149;-73
2022/12/04 07:22:53;;;;;;;;;;;21.90;65.70;;;;;;1500239;79;681;-72
2022/12/04 07:24:55;;;;;;;;;;;21.80;65.60;;;;;;1505648;78;789;-72
2022/12/04 07:26:57;;;;;;;;;;;21.90;66.00;;;;;;1507896;78;736;-71
2022/12/04 07:28:59;;;;;;;;;;;21.80;65.90;;;;;;1501795;78;1942;-71
2022/12/04 07:31:02;;;;;;;;;;;21.90;66.10;;;;;;1505166;77;1172;-68
2022/12/04 07:33:04;;;;;;;;;;;21.90;66.00;;;;;;1496080;78;1722;-71
2022/12/04 07:35:06;;;;;;;;;;;21.90;66.10;;;;;;1499165;78;740;-72
2022/12/04 07:37:08;;;;;;;;;;;21.90;66.20;;;;;;1501256;78;792;-72
2022/12/04 07:39:10;;;;;;;;;;;21.90;66.10;;;;;;1501307;78;755;-71
2022/12/04 07:41:12;;;;;;;;;;;22.00;66.00;;;;;;1499776;78;1163;-71
2022/12/04 07:43:14;;;;;;;;;;;21.90;66.00;;;;;;1500303;78;728;-72
2022/12/04 07:45:16;;;;;;;;;;;21.90;66.10;;;;;;1500184;78;772;-70
2022/12/04 07:47:18;;;;;;;;;;;22.00;66.10;;;;;;1504891;77;853;-71
2022/12/04 07:49:19;;;;;;;;;;;21.90;66.20;;;;;;1498357;78;1936;-70
2022/12/04 07:51:22;;;;;;;;;;;21.90;66.20;;;;;;1498870;78;1166;-71
2022/12/04 07:53:24;;;;;;;;;;;21.90;66.40;;;;;;1504081;78;792;-72
2022/12/04 07:55:26;;;;;;;;;;;21.90;66.30;;;;;;1499135;78;1599;-73
2022/12/04 07:57:28;;;;;;;;;;;21.90;66.20;;;;;;1502283;78;838;-72
2022/12/04 07:59:29;;;;;;;;;;;21.90;66.20;;;;;;1499514;78;722;-74
2022/12/04 08:01:31;;;;;;;;;;;21.90;66.30;;;;;;1559161;73;229948;-71
2022/12/04 08:03:33;;;;;;;;;;;21.90;66.40;;;;;;1575808;73;721;-72
2022/12/04 08:05:35;;;;;;;;;;;21.90;66.40;;;;;;1584796;73;764;-73
2022/12/04 08:07:37;;;;;;;;;;;21.90;66.50;;;;;;1573553;73;1930;-72
2022/12/04 08:09:39;;;;;;;;;;;21.80;66.30;;;;;;1584245;73;720;-73
2022/12/04 08:11:41;;;;;;;;;;;21.90;66.50;;;;;;1587168;73;1261;-73
2022/12/04 08:13:43;;;;;;;;;;;21.80;66.50;;;;;;1588099;73;717;-73
2022/12/04 08:15:45;;;;;;;;;;;21.80;66.50;;;;;;1580152;73;706;-74
2022/12/04 08:17:47;;;;;;;;;;;21.80;66.60;;;;;;1588512;73;710;-73
2022/12/04 08:19:49;;;;;;;;;;;21.90;66.70;;;;;;1588196;73;664;-73
2022/12/04 08:21:51;;;;;;;;;;;21.90;66.70;;;;;;1587420;73;1135;-74
2022/12/04 08:23:53;;;;;;;;;;;21.80;66.40;;;;;;1586370;73;728;-73
2022/12/04 08:25:56;;;;;;;;;;;21.90;66.60;;;;;;1587157;73;663;-72
2022/12/04 08:27:58;;;;;;;;;;;21.80;66.60;;;;;;1587854;73;1923;-69
2022/12/04 08:30:00;;;;;;;;;;;21.90;66.90;;;;;;1587930;73;734;-69
2022/12/04 08:32:02;;;;;;;;;;;21.80;66.50;;;;;;1586407;73;1072;-68
2022/12/04 08:34:05;;;;;;;;;;;21.80;66.50;;;;;;1588262;73;775;-68
2022/12/04 08:36:07;;;;;;;;;;;21.90;66.40;;;;;;1587055;73;797;-69
2022/12/04 08:38:09;;;;;;;;;;;21.90;66.20;;;;;;1587872;73;759;-68
2022/12/04 08:40:11;;;;;;;;;;;21.90;66.20;;;;;;1584232;73;1181;-68
2022/12/04 08:42:13;;;;;;;;;;;21.80;66.00;;;;;;1579205;73;727;-68
2022/12/04 08:44:15;;;;;;;;;;;21.90;65.90;;;;;;1591343;73;718;-67
2022/12/04 08:46:17;;;;;;;;;;;21.90;65.80;;;;;;1586640;73;721;-67
2022/12/04 08:48:19;;;;;;;;;;;21.80;65.60;;;;;;1581498;73;1936;-66
2022/12/04 08:50:21;;;;;;;;;;;21.80;65.60;;;;;;1584356;73;1154;-67
2022/12/04 08:52:23;;;;;;;;;;;21.80;65.50;;;;;;1571127;73;1518;-67
2022/12/04 08:54:25;;;;;;;;;;;21.70;65.60;;;;;;1581782;73;701;-65
2022/12/04 08:56:27;;;;;;;;;;;21.70;65.60;;;;;;1588232;73;674;-65
2022/12/04 08:58:28;;;;;;;;;;;21.70;65.70;;;;;;1583883;73;670;-66
2022/12/04 09:00:30;;;;;;;;;;;21.70;65.80;;;;;;1588061;73;1211;-67
2022/12/04 09:02:32;;;;;;;;;;;21.70;66.00;;;;;;1582719;73;768;-67
2022/12/04 09:04:34;;;;;;;;;;;21.70;66.10;;;;;;1587905;73;684;-66
2022/12/04 09:06:36;;;;;;;;;;;21.70;65.90;;;;;;1587867;73;804;-67
2022/12/04 09:08:38;;;;;;;;;;;21.60;65.70;;;;;;1587011;73;1933;-68
2022/12/04 09:10:40;;;;;;;;;;;21.60;65.70;;;;;;1583072;73;1152;-68
2022/12/04 09:12:42;;;;;;;;;;;21.60;65.60;;;;;;1586685;73;754;-68
2022/12/04 09:14:44;;;;;;;;;;;21.70;65.70;;;;;;1586960;73;721;-67
2022/12/04 09:16:46;;;;;;;;;;;21.60;65.60;;;;;;1573303;73;559;-68
2022/12/04 09:18:48;;;;;;;;;;;21.60;65.40;;;;;;1574121;73;696;-67
2022/12/04 09:20:57;;;;;;;;;;;21.60;65.50;;;;;;1585516;73;1143;-65
2022/12/04 09:22:59;;;;;;;;;;;21.60;64.30;;;;;;1581872;73;1246;-70
2022/12/04 09:25:02;;;;;;;;;;;21.70;62.00;;;;;;1585967;73;702;-73
2022/12/04 09:27:04;;;;;;;;;;;21.70;61.80;;;;;;1584172;73;626;-73
2022/12/04 09:29:06;;;;;;;;;;;21.60;61.90;;;;;;1582340;73;1919;-73
2022/12/04 09:31:08;;;;;;;;;;;21.60;62.00;;;;;;1586893;73;1146;-72
2022/12/04 09:33:10;;;;;;;;;;;21.50;62.40;;;;;;1585844;73;699;-73
2022/12/04 09:35:12;;;;;;;;;;;21.50;62.60;;;;;;1570748;73;736;-73
2022/12/04 09:37:14;;;;;;;;;;;21.50;62.80;;;;;;1580267;73;763;-73
2022/12/04 09:39:16;;;;;;;;;;;21.40;62.90;;;;;;1579707;73;736;-73
2022/12/04 09:41:22;;;;;;;;;;;21.40;63.10;;;;;;1583337;73;1120;-72
2022/12/04 09:43:29;;;;;;;;;;;21.40;63.20;;;;;;1586138;73;806;-72
2022/12/04 09:45:32;;;;;;;;;;;21.40;63.40;;;;;;1579128;73;980;-73
2022/12/04 09:47:36;;;;;;;;;;;21.40;63.50;;;;;;1586389;73;1457;-74
2022/12/04 09:49:39;;;;;;;;;;;21.40;63.60;;;;;;1579390;73;1931;-73
2022/12/04 09:51:41;;;;;;;;;;;21.40;63.70;;;;;;1590896;73;1112;-74
2022/12/04 09:53:45;;;;;;;;;;;21.40;63.80;;;;;;1582680;73;702;-74
2022/12/04 09:55:57;;;;;;;;;;;21.40;63.70;;;;;;1588688;73;736;-74
2022/12/04 09:58:00;;;;;;;;;;;21.40;63.80;;;;;;1585230;73;1795;-73
2022/12/04 10:00:04;;;;;;;;;;;21.40;63.90;;;;;;1584103;73;726;-72
2022/12/04 10:02:10;;;;;;;;;;;21.40;63.90;;;;;;1587882;73;1169;-74
2022/12/04 10:04:12;;;;;;;;;;;21.30;64.00;;;;;;1583196;73;733;-74
2022/12/04 10:06:15;;;;;;;;;;;21.40;64.00;;;;;;1587162;73;676;-74
2022/12/04 10:08:21;;;;;;;;;;;21.30;64.00;;;;;;1586034;73;1697;-74
2022/12/04 10:10:24;;;;;;;;;;;21.40;64.10;;;;;;1587754;73;1143;-74
2022/12/04 10:12:30;;;;;;;;;;;21.30;64.10;;;;;;1586448;73;758;-74
2022/12/04 10:14:34;;;;;;;;;;;21.30;64.20;;;;;;1587450;73;746;-73
2022/12/04 10:16:40;;;;;;;;;;;21.30;64.30;;;;;;1585735;73;1088;-74
2022/12/04 10:19:02;;;;;;;;;;;21.30;64.30;;;;;;1587332;73;665;-76
2022/12/04 10:21:14;;;;;;;;;;;21.30;64.30;;;;;;1586684;73;1133;-74
2022/12/04 10:23:20;;;;;;;;;;;21.30;64.50;;;;;;1591370;73;2013;-75
2022/12/04 10:25:22;;;;;;;;;;;21.20;64.60;;;;;;1581857;73;1787;-74
2022/12/04 10:27:25;;;;;;;;;;;21.20;64.80;;;;;;1587941;73;765;-74
2022/12/04 10:29:29;;;;;;;;;;;21.10;65.00;;;;;;1586540;73;1919;-74
2022/12/04 10:31:30;;;;;;;;;;;21.10;64.90;;;;;;1581917;73;1145;-76
2022/12/04 10:33:36;;;;;;;;;;;21.10;65.00;;;;;;1587731;73;731;-76
2022/12/04 10:35:38;;;;;;;;;;;21.20;64.90;;;;;;1585735;73;1104;-74
2022/12/04 10:37:40;;;;;;;;;;;21.20;64.90;;;;;;1591920;73;661;-73
2022/12/04 10:39:44;;;;;;;;;;;21.20;65.00;;;;;;1582851;73;794;-74
2022/12/04 10:41:54;;;;;;;;;;;21.10;65.10;;;;;;1586804;73;1127;-71
2022/12/04 10:43:55;;;;;;;;;;;21.10;65.40;;;;;;1580519;73;1498;-73
2022/12/04 10:45:57;;;;;;;;;;;21.10;65.70;;;;;;1587237;73;692;-73
2022/12/04 10:47:59;;;;;;;;;;;21.20;66.00;;;;;;1588166;73;694;-74
2022/12/04 10:50:02;;;;;;;;;;;21.10;65.80;;;;;;1587474;73;1945;-73
2022/12/04 10:52:04;;;;;;;;;;;21.10;65.70;;;;;;1591651;73;1108;-74
2022/12/04 10:54:16;;;;;;;;;;;21.20;65.70;;;;;;1586872;73;704;-74
2022/12/04 10:56:19;;;;;;;;;;;21.10;65.60;;;;;;1587192;73;697;-74
2022/12/04 10:58:22;;;;;;;;;;;21.10;65.40;;;;;;1578741;73;705;-74
2022/12/04 11:00:28;;;;;;;;;;;21.20;65.30;;;;;;1579104;73;1155;-74
2022/12/04 11:02:31;;;;;;;;;;;21.20;65.20;;;;;;1587919;73;702;-73
2022/12/04 11:04:33;;;;;;;;;;;21.20;65.10;;;;;;1586908;73;736;-72
2022/12/04 11:06:35;;;;;;;;;;;21.20;65.00;;;;;;1594824;73;717;-74
2022/12/04 11:08:39;;;;;;;;;;;21.30;65.10;;;;;;1587494;73;706;-73
2022/12/04 11:10:42;;;;;;;;;;;21.20;64.90;;;;;;1584455;73;1926;-74
2022/12/04 11:12:54;;;;;;;;;;;21.20;65.10;;;;;;1583621;73;733;-74
2022/12/04 11:14:59;;;;;;;;;;;21.20;65.00;;;;;;1585654;73;739;-73
2022/12/04 11:17:03;;;;;;;;;;;21.20;65.10;;;;;;1588175;73;797;-75
2022/12/04 11:19:06;;;;;;;;;;;21.10;65.10;;;;;;1575191;73;1846;-75
2022/12/04 11:21:10;;;;;;;;;;;21.10;65.20;;;;;;1580668;73;1154;-75
2022/12/04 11:23:12;;;;;;;;;;;21.10;65.10;;;;;;1571529;73;1435;-73
2022/12/04 11:25:15;;;;;;;;;;;21.10;65.20;;;;;;1587810;73;729;-75
2022/12/04 11:27:18;;;;;;;;;;;21.10;65.10;;;;;;1583862;73;685;-74
2022/12/04 11:29:21;;;;;;;;;;;21.20;64.00;;;;;;1588244;73;1941;-74
2022/12/04 11:31:23;;;;;;;;;;;21.10;62.50;;;;;;1582515;73;1097;-72
2022/12/04 11:33:29;;;;;;;;;;;21.10;60.60;;;;;;1586815;73;696;-72
2022/12/04 11:35:31;;;;;;;;;;;21.00;58.70;;;;;;1590281;73;795;-72
2022/12/04 11:37:33;;;;;;;;;;;21.10;57.10;;;;;;1582349;73;650;-72
2022/12/04 11:39:37;;;;;;;;;;;21.00;56.50;;;;;;1581837;73;1496;-71
2022/12/04 11:41:39;;;;;;;;;;;21.00;56.00;;;;;;1580221;73;1119;-75
2022/12/04 11:43:42;;;;;;;;;;;20.90;57.10;;;;;;1583335;73;701;-73
2022/12/04 11:45:55;;;;;;;;;;;20.90;57.60;;;;;;1581376;73;1151;-73
2022/12/04 11:47:59;;;;;;;;;;;20.90;58.90;;;;;;1587882;73;1030;-73
2022/12/04 11:50:10;;;;;;;;;;;20.80;59.20;;;;;;1586204;73;1939;-74
2022/12/04 11:52:31;;;;;;;;;;;20.80;59.70;;;;;;1581366;73;807;-74
2022/12/04 11:54:38;;;;;;;;;;;20.80;60.30;;;;;;1586060;73;716;-74
2022/12/04 11:56:41;;;;;;;;;;;20.70;60.70;;;;;;1585704;73;744;-73
2022/12/04 11:58:54;;;;;;;;;;;20.70;61.00;;;;;;1584335;73;708;-77
2022/12/04 12:01:03;;;;;;;;;;;20.70;60.70;;;;;;1581222;73;1081;-72
2022/12/04 12:03:23;;;;;;;;;;;20.80;59.10;;;;;;1586570;73;1009;-73
2022/12/04 12:05:36;;;;;;;;;;;20.80;59.30;;;;;;1576970;73;754;-73
2022/12/04 12:07:39;;;;;;;;;;;20.70;59.70;;;;;;1576346;73;1164;-74
2022/12/04 12:09:48;;;;;;;;;;;20.70;60.30;;;;;;1587364;73;1923;-73
2022/12/04 12:11:58;;;;;;;;;;;20.70;60.90;;;;;;1574211;73;1114;-72
2022/12/04 12:14:01;;;;;;;;;;;20.60;61.20;;;;;;1585961;73;1037;-73
2022/12/04 12:16:11;;;;;;;;;;;20.70;61.30;;;;;;1569571;73;729;-75
2022/12/04 12:18:32;;;;;;;;;;;20.60;61.50;;;;;;1584278;73;1178;-73
2022/12/04 12:20:36;;;;;;;;;;;20.60;61.80;;;;;;1581511;73;1132;-74
2022/12/04 12:22:42;;;;;;;;;;;20.60;61.90;;;;;;1581002;73;1077;-72
2022/12/04 12:24:55;;;;;;;;;;;20.60;61.90;;;;;;1576125;73;676;-75
2022/12/04 12:27:01;;;;;;;;;;;20.60;62.10;;;;;;1556466;73;1043;-73
2022/12/04 12:29:11;;;;;;;;;;;20.60;62.30;;;;;;1582174;73;725;-73